createdAt,value
2023-02-11T00:00:23.348Z,0.26
2023-02-11T00:02:50.501Z,0.29
2023-02-11T00:05:17.590Z,0.29
2023-02-11T00:07:44.908Z,0.29
2023-02-11T00:10:11.990Z,0.27
2023-02-11T00:12:39.065Z,0.31
2023-02-11T00:15:08.066Z,0.31
2023-02-11T00:17:35.176Z,0.32
2023-02-11T00:20:02.308Z,0.31
2023-02-11T00:22:29.391Z,0.30
2023-02-11T00:24:57.260Z,0.32
2023-02-11T00:27:24.333Z,0.32
2023-02-11T00:29:51.581Z,0.32
2023-02-11T00:32:18.720Z,0.34
2023-02-11T00:34:45.830Z,0.33
2023-02-11T00:37:13.617Z,0.31
2023-02-11T00:39:40.756Z,0.30
2023-02-11T00:42:08.168Z,0.27
2023-02-11T00:44:35.380Z,0.31
2023-02-11T00:47:02.399Z,0.33
2023-02-11T00:49:29.428Z,0.34
2023-02-11T00:51:56.667Z,0.34
2023-02-11T00:54:23.742Z,0.38
2023-02-11T00:56:50.810Z,0.40
2023-02-11T00:59:17.953Z,0.44
2023-02-11T01:01:45.100Z,0.43
2023-02-11T01:04:12.364Z,0.43
2023-02-11T01:06:39.422Z,0.48
2023-02-11T01:09:06.506Z,0.49
2023-02-11T01:11:33.599Z,0.53
2023-02-11T01:14:00.676Z,0.53
2023-02-11T01:16:27.759Z,0.59
2023-02-11T01:18:54.933Z,0.63
2023-02-11T01:21:22.117Z,0.64
2023-02-11T01:23:49.180Z,0.66
2023-02-11T01:26:17.081Z,0.70
2023-02-11T01:28:44.440Z,0.73
2023-02-11T01:31:11.657Z,0.77
2023-02-11T01:33:38.944Z,0.78
2023-02-11T01:36:07.257Z,0.80
2023-02-11T01:38:35.180Z,0.82
2023-02-11T01:41:07.727Z,0.79
2023-02-11T01:43:46.566Z,0.80
2023-02-11T01:46:35.390Z,0.81
2023-02-11T01:49:11.519Z,0.78
2023-02-11T01:51:58.918Z,0.75
2023-02-11T01:54:49.199Z,0.72
2023-02-11T01:57:23.339Z,0.76
2023-02-11T02:00:11.001Z,0.82
2023-02-11T02:03:02.960Z,0.89
2023-02-11T02:05:42.109Z,0.91
2023-02-11T02:08:21.589Z,0.96
2023-02-11T02:10:53.838Z,0.99
2023-02-11T02:13:21.119Z,1.04
2023-02-11T02:15:59.899Z,1.04
2023-02-11T02:18:37.886Z,1.06
2023-02-11T02:21:22.110Z,1.06
2023-02-11T02:23:58.303Z,1.06
2023-02-11T02:26:44.293Z,1.09
2023-02-11T02:29:40.733Z,1.09
2023-02-11T02:32:38.831Z,1.13
2023-02-11T02:35:25.926Z,1.18
2023-02-11T02:38:28.219Z,1.22
2023-02-11T02:40:59.723Z,1.28
2023-02-11T02:43:27.802Z,1.28
2023-02-11T02:45:55.247Z,1.28
2023-02-11T02:48:31.798Z,1.29
2023-02-11T02:51:15.756Z,1.33
2023-02-11T02:54:00.290Z,1.37
2023-02-11T02:57:12.272Z,1.42
2023-02-11T03:00:02.054Z,1.46
2023-02-11T03:02:45.630Z,1.49
2023-02-11T03:05:21.405Z,1.53
2023-02-11T03:07:57.253Z,1.55
2023-02-11T03:10:34.530Z,1.60
2023-02-11T03:13:02.784Z,1.62
2023-02-11T03:15:32.678Z,1.64
2023-02-11T03:18:01.998Z,1.66
2023-02-11T03:20:30.851Z,1.68
2023-02-11T03:23:08.762Z,1.69
2023-02-11T03:25:46.196Z,1.66
2023-02-11T03:28:21.894Z,1.68
2023-02-11T03:31:14.041Z,1.72
2023-02-11T03:33:54.420Z,1.78
2023-02-11T03:36:32.613Z,1.84
2023-02-11T03:39:00.403Z,1.87
2023-02-11T03:41:27.689Z,1.90
2023-02-11T03:43:57.114Z,1.91
2023-02-11T03:46:29.103Z,1.94
2023-02-11T03:49:01.544Z,1.94
2023-02-11T03:51:29.538Z,1.97
2023-02-11T03:53:58.504Z,1.99
2023-02-11T03:56:28.878Z,2.00
2023-02-11T03:58:56.029Z,2.03
2023-02-11T04:01:23.199Z,2.04
2023-02-11T04:03:50.292Z,2.08
2023-02-11T04:06:17.353Z,2.12
2023-02-11T04:08:44.554Z,2.13
2023-02-11T04:11:11.601Z,2.15
2023-02-11T04:13:38.715Z,2.17
2023-02-11T04:16:05.897Z,2.16
2023-02-11T04:18:33.033Z,2.12
2023-02-11T04:21:00.157Z,2.10
2023-02-11T04:23:27.418Z,2.06
2023-02-11T04:25:54.664Z,2.06
2023-02-11T04:28:21.800Z,2.05
2023-02-11T04:30:51.909Z,2.03
2023-02-11T04:33:19.001Z,2.05
2023-02-11T04:35:46.112Z,2.04
2023-02-11T04:38:13.775Z,2.07
2023-02-11T04:40:40.960Z,2.09
2023-02-11T04:43:08.127Z,2.06
2023-02-11T04:45:35.390Z,2.08
2023-02-11T04:48:03.325Z,2.06
2023-02-11T04:50:30.625Z,2.10
2023-02-11T04:52:57.699Z,2.10
2023-02-11T04:55:24.752Z,2.08
2023-02-11T04:57:51.785Z,2.07
2023-02-11T05:00:19.279Z,2.08
2023-02-11T05:02:46.371Z,2.09
2023-02-11T05:05:13.492Z,2.10
2023-02-11T05:07:41.048Z,2.11
2023-02-11T05:10:08.315Z,2.11
2023-02-11T05:12:35.354Z,2.13
2023-02-11T05:15:02.518Z,2.14
2023-02-11T05:17:29.900Z,2.15
2023-02-11T05:19:56.966Z,2.17
2023-02-11T05:22:24.060Z,2.17
2023-02-11T05:24:51.124Z,2.18
2023-02-11T05:27:18.199Z,2.15
2023-02-11T05:29:45.273Z,2.15
2023-02-11T05:32:12.376Z,2.17
2023-02-11T05:34:39.424Z,2.19
2023-02-11T05:37:06.527Z,2.21
2023-02-11T05:39:33.706Z,2.24
2023-02-11T05:42:00.851Z,2.24
2023-02-11T05:44:27.964Z,2.23
2023-02-11T05:46:55.008Z,2.23
2023-02-11T05:49:22.081Z,2.25
2023-02-11T05:51:49.384Z,2.26
2023-02-11T05:54:17.035Z,2.23
2023-02-11T05:56:45.008Z,2.24
2023-02-11T05:59:14.522Z,2.25
2023-02-11T06:01:41.649Z,2.25
2023-02-11T06:04:09.043Z,2.31
2023-02-11T06:06:36.116Z,2.32
2023-02-11T06:09:03.469Z,2.36
2023-02-11T06:11:30.548Z,2.37
2023-02-11T06:13:57.589Z,2.43
2023-02-11T06:16:24.762Z,2.45
2023-02-11T06:18:51.902Z,2.46
2023-02-11T06:21:19.095Z,2.48
2023-02-11T06:23:46.152Z,2.51
2023-02-11T06:26:21.818Z,2.52
2023-02-11T06:28:49.572Z,2.48
2023-02-11T06:31:17.159Z,2.48
2023-02-11T06:33:44.525Z,2.48
2023-02-11T06:36:15.446Z,2.48
2023-02-11T06:38:42.550Z,2.46
2023-02-11T06:41:11.479Z,2.44
2023-02-11T06:43:38.622Z,2.43
2023-02-11T06:46:05.899Z,2.44
2023-02-11T06:48:33.525Z,2.41
2023-02-11T06:51:05.450Z,2.42
2023-02-11T06:53:35.962Z,2.40
2023-02-11T06:56:07.551Z,2.45
2023-02-11T06:58:35.023Z,2.48
2023-02-11T07:01:10.224Z,2.49
2023-02-11T07:03:39.345Z,2.47
2023-02-11T07:06:12.987Z,2.44
2023-02-11T07:08:40.524Z,2.40
2023-02-11T07:11:12.259Z,2.40
2023-02-11T07:13:39.388Z,2.37
2023-02-11T07:16:12.922Z,2.36
2023-02-11T07:18:40.094Z,2.36
2023-02-11T07:21:08.863Z,2.39
2023-02-11T07:23:36.839Z,2.41
2023-02-11T07:26:12.402Z,2.43
2023-02-11T07:28:40.618Z,2.42
2023-02-11T07:31:15.998Z,2.40
2023-02-11T07:33:46.000Z,2.40
2023-02-11T07:36:14.715Z,2.39
2023-02-11T07:38:42.250Z,2.35
2023-02-11T07:41:11.772Z,2.36
2023-02-11T07:43:39.819Z,2.37
2023-02-11T07:46:09.110Z,2.36
2023-02-11T07:48:36.206Z,2.42
2023-02-11T07:51:26.581Z,2.42
2023-02-11T07:53:55.485Z,2.40
2023-02-11T07:56:23.019Z,2.41
2023-02-11T07:58:50.520Z,2.41
2023-02-11T08:01:25.348Z,2.39
2023-02-11T08:03:53.077Z,2.43
2023-02-11T08:06:21.434Z,2.51
2023-02-11T08:08:49.179Z,2.54
2023-02-11T08:11:18.961Z,2.57
2023-02-11T08:13:46.586Z,2.59
2023-02-11T08:16:28.928Z,2.59
2023-02-11T08:18:57.859Z,2.61
2023-02-11T08:21:25.280Z,2.62
2023-02-11T08:23:52.563Z,2.63
2023-02-11T08:26:26.006Z,2.61
2023-02-11T08:28:54.573Z,2.59
2023-02-11T08:31:26.770Z,2.57
2023-02-11T08:33:55.054Z,2.60
2023-02-11T08:36:23.640Z,2.61
2023-02-11T08:38:50.778Z,2.61
2023-02-11T08:41:18.266Z,2.60
2023-02-11T08:43:47.194Z,2.61
2023-02-11T08:46:17.029Z,2.63
2023-02-11T08:48:45.081Z,2.68
2023-02-11T08:51:20.906Z,2.69
2023-02-11T08:53:48.215Z,2.73
2023-02-11T08:56:16.556Z,2.77
2023-02-11T08:58:43.962Z,2.79
2023-02-11T09:01:17.663Z,2.73
2023-02-11T09:03:44.755Z,2.77
2023-02-11T09:06:13.900Z,2.78
2023-02-11T09:08:45.327Z,2.79
2023-02-11T09:11:13.780Z,2.84
2023-02-11T09:13:42.594Z,2.88
2023-02-11T09:16:17.439Z,2.91
2023-02-11T09:18:45.619Z,2.93
2023-02-11T09:21:13.212Z,2.98
2023-02-11T09:23:43.490Z,2.99
2023-02-11T09:26:15.762Z,2.94
2023-02-11T09:28:42.885Z,2.98
2023-02-11T09:31:12.342Z,2.97
2023-02-11T09:33:42.311Z,3.02
2023-02-11T09:36:09.455Z,3.00
2023-02-11T09:38:36.495Z,3.05
2023-02-11T09:41:07.584Z,3.06
2023-02-11T09:43:44.220Z,3.08
2023-02-11T09:46:15.542Z,3.05
2023-02-11T09:48:44.331Z,3.05
2023-02-11T09:51:33.194Z,3.07
2023-02-11T09:54:05.614Z,2.99
2023-02-11T09:56:33.019Z,3.00
2023-02-11T09:59:00.119Z,3.00
2023-02-11T10:01:53.341Z,2.99
2023-02-11T10:04:39.644Z,2.96
2023-02-11T10:07:21.477Z,2.95
2023-02-11T10:10:17.706Z,2.95
2023-02-11T10:13:03.897Z,2.97
2023-02-11T10:16:05.376Z,3.02
2023-02-11T10:18:38.724Z,3.05
2023-02-11T10:21:18.024Z,3.06
2023-02-11T10:23:48.158Z,3.01
2023-02-11T10:26:17.371Z,3.04
2023-02-11T10:28:46.652Z,3.08
2023-02-11T10:31:22.621Z,3.10
2023-02-11T10:34:04.047Z,3.12
2023-02-11T10:36:34.797Z,3.12
2023-02-11T10:39:12.213Z,3.15
2023-02-11T10:41:44.457Z,3.14
2023-02-11T10:44:32.937Z,3.19
2023-02-11T10:47:09.880Z,3.24
2023-02-11T10:49:45.041Z,3.27
2023-02-11T10:52:24.254Z,3.29
2023-02-11T10:55:14.790Z,3.28
2023-02-11T10:57:49.725Z,3.33
2023-02-11T11:00:29.592Z,3.42
2023-02-11T11:02:59.015Z,3.50
2023-02-11T11:05:47.530Z,3.54
2023-02-11T11:08:15.847Z,3.59
2023-02-11T11:10:48.856Z,3.64
2023-02-11T11:13:26.439Z,3.67
2023-02-11T11:16:18.707Z,3.73
2023-02-11T11:18:48.246Z,3.75
2023-02-11T11:21:23.385Z,3.74
2023-02-11T11:23:54.070Z,3.79
2023-02-11T11:26:21.612Z,3.80
2023-02-11T11:29:10.546Z,3.82
2023-02-11T11:31:55.279Z,3.79
2023-02-11T11:34:30.964Z,3.78
2023-02-11T11:37:00.042Z,3.80
2023-02-11T11:39:31.677Z,3.82
2023-02-11T11:42:00.632Z,3.82
2023-02-11T11:44:29.265Z,3.86
2023-02-11T11:47:11.471Z,3.89
2023-02-11T11:49:49.554Z,3.88
2023-02-11T11:52:36.495Z,3.91
2023-02-11T11:55:25.652Z,3.94
2023-02-11T11:57:53.061Z,3.90
2023-02-11T12:00:24.153Z,3.97
2023-02-11T12:03:13.072Z,3.99
2023-02-11T12:06:07.524Z,3.96
2023-02-11T12:08:46.495Z,3.94
2023-02-11T12:11:16.516Z,3.96
2023-02-11T12:13:59.363Z,3.93
2023-02-11T12:16:54.952Z,3.92
2023-02-11T12:19:52.943Z,3.94
2023-02-11T12:22:44.399Z,3.97
2023-02-11T12:25:25.443Z,3.96
2023-02-11T12:28:23.657Z,3.94
2023-02-11T12:31:03.358Z,3.91
2023-02-11T12:33:58.328Z,3.89
2023-02-11T12:36:47.421Z,3.91
2023-02-11T12:39:26.214Z,3.91
2023-02-11T12:42:35.814Z,3.92
2023-02-11T12:45:11.620Z,3.94
2023-02-11T12:48:15.384Z,3.92
2023-02-11T12:50:45.641Z,3.94
2023-02-11T12:53:25.800Z,3.93
2023-02-11T12:55:58.472Z,3.92
2023-02-11T12:58:39.478Z,3.86
2023-02-11T13:01:33.918Z,3.85
2023-02-11T13:04:17.148Z,3.83
2023-02-11T13:06:47.771Z,3.81
2023-02-11T13:09:28.374Z,3.79
2023-02-11T13:11:58.038Z,3.79
2023-02-11T13:14:35.495Z,3.80
2023-02-11T13:17:06.784Z,3.77
2023-02-11T13:19:42.683Z,3.76
2023-02-11T13:22:18.884Z,3.77
2023-02-11T13:25:06.157Z,3.77
2023-02-11T13:27:51.635Z,3.77
2023-02-11T13:30:30.334Z,3.78
2023-02-11T13:32:57.387Z,3.80
2023-02-11T13:35:37.483Z,3.85
2023-02-11T13:38:21.622Z,3.81
2023-02-11T13:41:02.007Z,3.82
2023-02-11T13:43:30.104Z,3.82
2023-02-11T13:45:59.296Z,3.82
2023-02-11T13:48:31.974Z,3.84
2023-02-11T13:51:01.150Z,3.87
2023-02-11T13:53:28.740Z,3.87
2023-02-11T13:56:12.162Z,3.89
2023-02-11T13:58:50.054Z,3.87
2023-02-11T14:02:12.467Z,3.88
2023-02-11T14:05:21.099Z,3.88
2023-02-11T14:08:28.409Z,3.90
2023-02-11T14:11:00.138Z,3.89
2023-02-11T14:13:32.004Z,3.91
2023-02-11T14:16:20.498Z,3.93
2023-02-11T14:18:55.353Z,3.93
2023-02-11T14:21:32.311Z,3.90
2023-02-11T14:24:19.243Z,3.88
2023-02-11T14:26:58.966Z,3.84
2023-02-11T14:29:51.095Z,3.86
2023-02-11T14:32:56.173Z,3.86
2023-02-11T14:35:37.278Z,3.86
2023-02-11T14:38:22.447Z,3.85
2023-02-11T14:41:04.525Z,3.86
2023-02-11T14:43:36.373Z,3.86
2023-02-11T14:46:03.596Z,3.87
2023-02-11T14:48:36.560Z,3.85
2023-02-11T14:51:10.613Z,3.87
2023-02-11T14:53:38.144Z,3.87
2023-02-11T14:56:21.635Z,3.87
2023-02-11T14:58:51.649Z,3.86
2023-02-11T15:01:29.471Z,3.82
2023-02-11T15:03:56.998Z,3.81
2023-02-11T15:06:39.524Z,3.81
2023-02-11T15:09:30.666Z,3.86
2023-02-11T15:11:58.225Z,3.85
2023-02-11T15:14:29.067Z,3.84
2023-02-11T15:17:01.457Z,3.83
2023-02-11T15:19:34.269Z,3.84
2023-02-11T15:22:04.927Z,3.83
2023-02-11T15:24:35.034Z,3.84
2023-02-11T15:27:18.449Z,3.81
2023-02-11T15:29:51.346Z,3.84
2023-02-11T15:32:21.699Z,3.80
2023-02-11T15:34:50.645Z,3.83
2023-02-11T15:37:22.200Z,3.82
2023-02-11T15:39:51.001Z,3.81
2023-02-11T15:42:34.077Z,3.82
2023-02-11T15:45:11.760Z,3.81
2023-02-11T15:47:40.151Z,3.81
2023-02-11T15:50:07.990Z,3.79
2023-02-11T15:52:35.673Z,3.81
2023-02-11T15:55:02.873Z,3.80
2023-02-11T15:57:30.207Z,3.79
2023-02-11T15:59:58.724Z,3.82
2023-02-11T16:02:33.336Z,3.83
2023-02-11T16:05:03.788Z,3.82
2023-02-11T16:07:52.421Z,3.81
2023-02-11T16:10:24.046Z,3.81
2023-02-11T16:12:53.123Z,3.79
2023-02-11T16:15:38.226Z,3.80
2023-02-11T16:18:15.175Z,3.81
2023-02-11T16:20:47.282Z,3.81
2023-02-11T16:23:23.558Z,3.83
2023-02-11T16:25:59.662Z,3.85
2023-02-11T16:28:27.471Z,3.85
2023-02-11T16:30:55.505Z,3.86
2023-02-11T16:33:22.652Z,3.88
2023-02-11T16:35:49.908Z,3.91
2023-02-11T16:38:18.585Z,3.90
2023-02-11T16:40:49.167Z,3.93
2023-02-11T16:43:19.222Z,3.92
2023-02-11T16:45:47.016Z,3.91
2023-02-11T16:48:18.030Z,3.90
2023-02-11T16:50:48.617Z,3.86
2023-02-11T16:53:20.111Z,3.89
2023-02-11T16:55:47.198Z,3.86
2023-02-11T16:58:14.366Z,3.83
2023-02-11T17:00:41.781Z,3.84
2023-02-11T17:03:09.171Z,3.86
2023-02-11T17:05:53.090Z,3.85
2023-02-11T17:08:21.944Z,3.87
2023-02-11T17:10:49.474Z,3.88
2023-02-11T17:13:16.844Z,3.85
2023-02-11T17:15:44.005Z,3.82
2023-02-11T17:18:13.731Z,3.80
2023-02-11T17:20:41.206Z,3.72
2023-02-11T17:23:08.277Z,3.71
2023-02-11T17:25:37.384Z,3.68
2023-02-11T17:28:09.201Z,3.64
2023-02-11T17:30:36.377Z,3.62
2023-02-11T17:33:03.410Z,3.60
2023-02-11T17:35:30.653Z,3.57
2023-02-11T17:37:58.677Z,3.59
2023-02-11T17:40:26.409Z,3.55
2023-02-11T17:42:53.488Z,3.56
2023-02-11T17:45:22.422Z,3.50
2023-02-11T17:47:50.218Z,3.48
2023-02-11T17:50:17.316Z,3.47
2023-02-11T17:52:44.366Z,3.42
2023-02-11T17:55:11.564Z,3.41
2023-02-11T17:57:38.761Z,3.39
2023-02-11T18:00:09.355Z,3.37
2023-02-11T18:02:36.648Z,3.36
2023-02-11T18:05:04.282Z,3.37
2023-02-11T18:07:31.344Z,3.37
2023-02-11T18:09:58.536Z,3.35
2023-02-11T18:12:26.141Z,3.35
2023-02-11T18:14:57.479Z,3.31
2023-02-11T18:17:25.420Z,3.33
2023-02-11T18:19:56.683Z,3.35
2023-02-11T18:22:24.598Z,3.38
2023-02-11T18:24:53.352Z,3.38
2023-02-11T18:27:23.447Z,3.37
2023-02-11T18:29:50.594Z,3.40
2023-02-11T18:32:17.635Z,3.42
2023-02-11T18:34:44.717Z,3.43
2023-02-11T18:37:13.369Z,3.46
2023-02-11T18:39:40.976Z,3.49
2023-02-11T18:42:08.931Z,3.50
2023-02-11T18:44:36.801Z,3.51
2023-02-11T18:47:04.220Z,3.49
2023-02-11T18:49:32.925Z,3.47
2023-02-11T18:52:00.030Z,3.50
2023-02-11T18:54:27.148Z,3.51
2023-02-11T18:56:54.248Z,3.54
2023-02-11T18:59:21.345Z,3.54
2023-02-11T19:01:48.451Z,3.54
2023-02-11T19:04:19.770Z,3.55
2023-02-11T19:06:48.708Z,3.57
2023-02-11T19:09:18.395Z,3.59
2023-02-11T19:11:49.899Z,3.61
2023-02-11T19:14:20.039Z,3.61
2023-02-11T19:16:50.088Z,3.59
2023-02-11T19:19:17.667Z,3.55
2023-02-11T19:21:45.822Z,3.54
2023-02-11T19:24:16.069Z,3.54
2023-02-11T19:26:43.292Z,3.52
2023-02-11T19:29:10.538Z,3.54
2023-02-11T19:31:38.255Z,3.53
2023-02-11T19:34:07.442Z,3.50
2023-02-11T19:36:34.619Z,3.52
2023-02-11T19:39:02.893Z,3.51
2023-02-11T19:41:31.528Z,3.52
2023-02-11T19:43:58.578Z,3.53
2023-02-11T19:46:27.673Z,3.54
2023-02-11T19:48:55.084Z,3.54
2023-02-11T19:51:22.636Z,3.57
2023-02-11T19:53:50.984Z,3.58
2023-02-11T19:56:20.749Z,3.57
2023-02-11T19:58:48.025Z,3.54
2023-02-11T20:01:18.376Z,3.54
2023-02-11T20:03:49.842Z,3.57
2023-02-11T20:06:26.044Z,3.58
2023-02-11T20:08:57.198Z,3.59
2023-02-11T20:11:25.724Z,3.62
2023-02-11T20:13:52.821Z,3.62
2023-02-11T20:16:21.689Z,3.64
2023-02-11T20:18:49.742Z,3.68
2023-02-11T20:21:24.868Z,3.70
2023-02-11T20:23:52.618Z,3.72
2023-02-11T20:26:24.855Z,3.72
2023-02-11T20:28:52.996Z,3.73
2023-02-11T20:31:20.388Z,3.74
2023-02-11T20:33:47.899Z,3.77
2023-02-11T20:36:17.882Z,3.78
2023-02-11T20:38:45.165Z,3.79
2023-02-11T20:41:16.104Z,3.77
2023-02-11T20:43:46.035Z,3.78
2023-02-11T20:46:15.352Z,3.77
2023-02-11T20:48:43.057Z,3.78
2023-02-11T20:51:15.946Z,3.81
2023-02-11T20:53:44.755Z,3.83
2023-02-11T20:56:12.419Z,3.87
2023-02-11T20:58:39.650Z,3.87
2023-02-11T21:01:16.820Z,3.88
2023-02-11T21:03:46.685Z,3.88
2023-02-11T21:06:13.759Z,3.88
2023-02-11T21:08:40.822Z,3.89
2023-02-11T21:11:09.320Z,3.90
2023-02-11T21:13:37.724Z,3.91
2023-02-11T21:16:05.361Z,3.92
2023-02-11T21:18:33.302Z,3.94
2023-02-11T21:21:00.709Z,3.97
2023-02-11T21:23:29.051Z,3.99
2023-02-11T21:25:57.142Z,3.98
2023-02-11T21:28:26.430Z,3.99
2023-02-11T21:30:55.520Z,3.98
2023-02-11T21:33:24.412Z,3.98
2023-02-11T21:35:56.141Z,3.97
2023-02-11T21:38:23.967Z,3.96
2023-02-11T21:40:52.490Z,3.99
2023-02-11T21:43:19.834Z,4.01
2023-02-11T21:45:48.772Z,4.02
2023-02-11T21:48:16.351Z,4.04
2023-02-11T21:50:45.820Z,4.03
2023-02-11T21:53:13.527Z,4.04
2023-02-11T21:55:40.895Z,4.08
2023-02-11T21:58:08.536Z,4.09
2023-02-11T22:00:35.645Z,4.08
2023-02-11T22:03:03.251Z,4.11
2023-02-11T22:05:30.510Z,4.11
2023-02-11T22:07:57.540Z,4.12
2023-02-11T22:10:24.716Z,4.13
2023-02-11T22:12:51.781Z,4.16
2023-02-11T22:15:18.984Z,4.15
2023-02-11T22:17:46.005Z,4.15
2023-02-11T22:20:13.129Z,4.15
2023-02-11T22:22:40.193Z,4.15
2023-02-11T22:25:09.833Z,4.15
2023-02-11T22:27:37.135Z,4.16
2023-02-11T22:30:05.559Z,4.19
2023-02-11T22:32:32.876Z,4.21
2023-02-11T22:35:00.006Z,4.22
2023-02-11T22:37:27.083Z,4.21
2023-02-11T22:39:54.403Z,4.22
2023-02-11T22:42:21.757Z,4.25
2023-02-11T22:44:48.814Z,4.23
2023-02-11T22:47:16.464Z,4.25
2023-02-11T22:49:43.564Z,4.28
2023-02-11T22:52:10.593Z,4.30
2023-02-11T22:54:37.796Z,4.28
2023-02-11T22:57:05.573Z,4.26
2023-02-11T22:59:32.610Z,4.26
2023-02-11T23:02:00.200Z,4.27
2023-02-11T23:04:27.360Z,4.27
2023-02-11T23:06:54.378Z,4.31
2023-02-11T23:09:21.428Z,4.32
2023-02-11T23:11:49.379Z,4.35
2023-02-11T23:14:16.546Z,4.37
2023-02-11T23:16:43.760Z,4.37
2023-02-11T23:19:10.888Z,4.37
2023-02-11T23:21:39.118Z,4.37
2023-02-11T23:24:10.035Z,4.36
2023-02-11T23:26:39.335Z,4.35
2023-02-11T23:29:06.805Z,4.34
2023-02-11T23:31:37.740Z,4.36
2023-02-11T23:34:06.080Z,4.37
2023-02-11T23:36:33.551Z,4.37
2023-02-11T23:39:00.890Z,4.36
2023-02-11T23:41:28.835Z,4.38
2023-02-11T23:43:57.856Z,4.32
2023-02-11T23:46:26.751Z,4.33
2023-02-11T23:48:53.972Z,4.33
2023-02-11T23:51:22.084Z,4.30
2023-02-11T23:53:49.669Z,4.31
2023-02-11T23:56:19.948Z,4.32
2023-02-11T23:58:49.395Z,4.38
